sensor_id;sensor_type;location;lat;lon;timestamp;P1;durP1;ratioP1;P2;durP2;ratioP2
43150;SDS011;28755;51.478;5.702;2024-01-15T00:01:41;62.63;;;26.77;;
43150;SDS011;28755;51.478;5.702;2024-01-15T00:04:08;56.58;;;26.17;;
43150;SDS011;28755;51.478;5.702;2024-01-15T00:06:33;53.25;;;24.95;;
43150;SDS011;28755;51.478;5.702;2024-01-15T00:08:59;64.75;;;26.92;;
43150;SDS011;28755;51.478;5.702;2024-01-15T00:11:25;68.80;;;27.27;;
43150;SDS011;28755;51.478;5.702;2024-01-15T00:13:50;61.58;;;27.30;;
43150;SDS011;28755;51.478;5.702;2024-01-15T00:16:16;68.30;;;28.77;;
43150;SDS011;28755;51.478;5.702;2024-01-15T00:18:42;63.25;;;25.67;;
43150;SDS011;28755;51.478;5.702;2024-01-15T00:21:08;64.85;;;27.48;;
43150;SDS011;28755;51.478;5.702;2024-01-15T00:23:33;69.85;;;27.73;;
43150;SDS011;28755;51.478;5.702;2024-01-15T00:25:59;62.85;;;27.02;;
43150;SDS011;28755;51.478;5.702;2024-01-15T00:28:25;62.50;;;26.63;;
43150;SDS011;28755;51.478;5.702;2024-01-15T00:30:51;68.05;;;26.88;;
43150;SDS011;28755;51.478;5.702;2024-01-15T00:33:16;62.72;;;25.90;;
43150;SDS011;28755;51.478;5.702;2024-01-15T00:35:42;62.20;;;25.83;;
43150;SDS011;28755;51.478;5.702;2024-01-15T00:38:07;62.92;;;24.58;;
43150;SDS011;28755;51.478;5.702;2024-01-15T00:40:33;56.72;;;24.77;;
43150;SDS011;28755;51.478;5.702;2024-01-15T00:42:59;65.68;;;24.38;;
43150;SDS011;28755;51.478;5.702;2024-01-15T00:45:24;49.38;;;23.67;;
43150;SDS011;28755;51.478;5.702;2024-01-15T00:47:50;55.50;;;23.45;;
43150;SDS011;28755;51.478;5.702;2024-01-15T00:50:15;56.40;;;25.00;;
43150;SDS011;28755;51.478;5.702;2024-01-15T00:52:42;52.33;;;23.08;;
43150;SDS011;28755;51.478;5.702;2024-01-15T00:55:07;55.25;;;21.95;;
43150;SDS011;28755;51.478;5.702;2024-01-15T00:57:33;53.60;;;21.63;;
43150;SDS011;28755;51.478;5.702;2024-01-15T00:59:59;53.17;;;20.65;;
43150;SDS011;28755;51.478;5.702;2024-01-15T01:02:25;47.28;;;20.27;;
43150;SDS011;28755;51.478;5.702;2024-01-15T01:04:51;49.42;;;21.33;;
43150;SDS011;28755;51.478;5.702;2024-01-15T01:07:17;42.55;;;19.00;;
43150;SDS011;28755;51.478;5.702;2024-01-15T01:09:42;39.47;;;16.85;;
43150;SDS011;28755;51.478;5.702;2024-01-15T01:12:08;46.05;;;17.13;;
43150;SDS011;28755;51.478;5.702;2024-01-15T01:14:34;38.40;;;15.93;;
43150;SDS011;28755;51.478;5.702;2024-01-15T01:17:00;35.60;;;14.80;;
43150;SDS011;28755;51.478;5.702;2024-01-15T01:19:25;32.95;;;14.57;;
43150;SDS011;28755;51.478;5.702;2024-01-15T01:21:51;31.33;;;13.07;;
43150;SDS011;28755;51.478;5.702;2024-01-15T01:24:17;27.52;;;11.63;;
43150;SDS011;28755;51.478;5.702;2024-01-15T01:26:42;26.83;;;10.60;;
43150;SDS011;28755;51.478;5.702;2024-01-15T01:29:08;21.73;;;10.15;;
43150;SDS011;28755;51.478;5.702;2024-01-15T01:31:33;23.80;;;8.45;;
43150;SDS011;28755;51.478;5.702;2024-01-15T01:33:59;22.20;;;8.25;;
43150;SDS011;28755;51.478;5.702;2024-01-15T01:36:24;19.55;;;7.25;;
43150;SDS011;28755;51.478;5.702;2024-01-15T01:38:50;15.40;;;6.43;;
43150;SDS011;28755;51.478;5.702;2024-01-15T01:41:16;17.27;;;5.72;;
43150;SDS011;28755;51.478;5.702;2024-01-15T01:43:42;11.50;;;3.92;;
43150;SDS011;28755;51.478;5.702;2024-01-15T01:46:08;10.57;;;3.40;;
43150;SDS011;28755;51.478;5.702;2024-01-15T01:48:34;12.15;;;4.30;;
43150;SDS011;28755;51.478;5.702;2024-01-15T01:51:02;8.10;;;3.95;;
43150;SDS011;28755;51.478;5.702;2024-01-15T01:53:29;10.82;;;3.70;;
43150;SDS011;28755;51.478;5.702;2024-01-15T01:55:56;8.95;;;3.78;;
43150;SDS011;28755;51.478;5.702;2024-01-15T01:58:22;8.40;;;3.38;;
43150;SDS011;28755;51.478;5.702;2024-01-15T02:00:48;8.27;;;3.22;;
43150;SDS011;28755;51.478;5.702;2024-01-15T02:03:14;13.07;;;3.20;;
43150;SDS011;28755;51.478;5.702;2024-01-15T02:05:40;10.23;;;3.97;;
43150;SDS011;28755;51.478;5.702;2024-01-15T02:08:08;10.27;;;3.53;;
43150;SDS011;28755;51.478;5.702;2024-01-15T02:10:33;10.07;;;3.60;;
43150;SDS011;28755;51.478;5.702;2024-01-15T02:12:59;8.15;;;3.97;;
43150;SDS011;28755;51.478;5.702;2024-01-15T02:15:25;11.48;;;4.10;;
43150;SDS011;28755;51.478;5.702;2024-01-15T02:17:57;13.93;;;4.43;;
43150;SDS011;28755;51.478;5.702;2024-01-15T02:20:27;16.80;;;4.95;;
43150;SDS011;28755;51.478;5.702;2024-01-15T02:22:53;7.95;;;4.43;;
43150;SDS011;28755;51.478;5.702;2024-01-15T02:25:19;11.98;;;5.07;;
43150;SDS011;28755;51.478;5.702;2024-01-15T02:27:45;15.13;;;5.90;;
43150;SDS011;28755;51.478;5.702;2024-01-15T02:30:12;15.88;;;5.63;;
43150;SDS011;28755;51.478;5.702;2024-01-15T02:32:38;12.43;;;5.40;;
43150;SDS011;28755;51.478;5.702;2024-01-15T02:35:04;13.60;;;6.07;;
43150;SDS011;28755;51.478;5.702;2024-01-15T02:37:29;12.18;;;5.57;;
43150;SDS011;28755;51.478;5.702;2024-01-15T02:39:55;12.30;;;6.32;;
43150;SDS011;28755;51.478;5.702;2024-01-15T02:42:21;15.02;;;5.55;;
43150;SDS011;28755;51.478;5.702;2024-01-15T02:44:46;11.40;;;5.72;;
43150;SDS011;28755;51.478;5.702;2024-01-15T02:47:13;14.85;;;5.85;;
43150;SDS011;28755;51.478;5.702;2024-01-15T02:49:39;11.55;;;4.90;;
43150;SDS011;28755;51.478;5.702;2024-01-15T02:52:05;14.57;;;5.60;;
43150;SDS011;28755;51.478;5.702;2024-01-15T02:54:30;16.48;;;5.43;;
43150;SDS011;28755;51.478;5.702;2024-01-15T02:56:56;12.48;;;6.43;;
43150;SDS011;28755;51.478;5.702;2024-01-15T02:59:22;17.30;;;5.90;;
43150;SDS011;28755;51.478;5.702;2024-01-15T03:01:47;15.45;;;6.68;;
43150;SDS011;28755;51.478;5.702;2024-01-15T03:04:13;19.15;;;6.13;;
43150;SDS011;28755;51.478;5.702;2024-01-15T03:06:38;14.65;;;6.13;;
43150;SDS011;28755;51.478;5.702;2024-01-15T03:09:04;18.50;;;6.63;;
43150;SDS011;28755;51.478;5.702;2024-01-15T03:11:36;15.40;;;6.00;;
43150;SDS011;28755;51.478;5.702;2024-01-15T03:14:03;14.05;;;5.80;;
43150;SDS011;28755;51.478;5.702;2024-01-15T03:16:28;16.98;;;5.03;;
43150;SDS011;28755;51.478;5.702;2024-01-15T03:18:54;12.50;;;5.43;;
43150;SDS011;28755;51.478;5.702;2024-01-15T03:21:19;11.63;;;5.05;;
43150;SDS011;28755;51.478;5.702;2024-01-15T03:23:45;9.70;;;4.80;;
43150;SDS011;28755;51.478;5.702;2024-01-15T03:26:10;14.88;;;3.85;;
43150;SDS011;28755;51.478;5.702;2024-01-15T03:28:36;13.70;;;4.03;;
43150;SDS011;28755;51.478;5.702;2024-01-15T03:31:02;11.15;;;4.07;;
43150;SDS011;28755;51.478;5.702;2024-01-15T03:33:27;13.23;;;3.80;;
43150;SDS011;28755;51.478;5.702;2024-01-15T03:35:53;16.20;;;3.92;;
43150;SDS011;28755;51.478;5.702;2024-01-15T03:38:18;9.63;;;3.80;;
43150;SDS011;28755;51.478;5.702;2024-01-15T03:40:44;8.35;;;3.40;;
43150;SDS011;28755;51.478;5.702;2024-01-15T03:43:10;12.30;;;4.38;;
43150;SDS011;28755;51.478;5.702;2024-01-15T03:45:35;7.68;;;4.07;;
43150;SDS011;28755;51.478;5.702;2024-01-15T03:48:01;10.73;;;3.15;;
43150;SDS011;28755;51.478;5.702;2024-01-15T03:50:27;10.82;;;3.85;;
43150;SDS011;28755;51.478;5.702;2024-01-15T03:52:52;10.73;;;4.00;;
43150;SDS011;28755;51.478;5.702;2024-01-15T03:55:18;8.95;;;3.70;;
43150;SDS011;28755;51.478;5.702;2024-01-15T03:57:43;14.52;;;4.30;;
43150;SDS011;28755;51.478;5.702;2024-01-15T04:00:09;15.57;;;4.47;;
43150;SDS011;28755;51.478;5.702;2024-01-15T04:02:35;16.23;;;4.10;;
43150;SDS011;28755;51.478;5.702;2024-01-15T04:05:01;13.55;;;4.75;;
43150;SDS011;28755;51.478;5.702;2024-01-15T04:07:26;12.38;;;4.65;;
43150;SDS011;28755;51.478;5.702;2024-01-15T04:09:52;11.98;;;4.63;;
43150;SDS011;28755;51.478;5.702;2024-01-15T04:12:17;14.93;;;5.28;;
43150;SDS011;28755;51.478;5.702;2024-01-15T04:14:43;18.38;;;5.88;;
43150;SDS011;28755;51.478;5.702;2024-01-15T04:17:08;13.95;;;5.32;;
43150;SDS011;28755;51.478;5.702;2024-01-15T04:19:34;16.80;;;5.18;;
43150;SDS011;28755;51.478;5.702;2024-01-15T04:22:00;15.23;;;5.50;;
43150;SDS011;28755;51.478;5.702;2024-01-15T04:24:25;12.43;;;4.45;;
43150;SDS011;28755;51.478;5.702;2024-01-15T04:26:51;11.63;;;4.75;;
43150;SDS011;28755;51.478;5.702;2024-01-15T04:29:16;14.48;;;3.47;;
43150;SDS011;28755;51.478;5.702;2024-01-15T04:31:42;11.95;;;3.15;;
43150;SDS011;28755;51.478;5.702;2024-01-15T04:34:08;11.88;;;3.22;;
43150;SDS011;28755;51.478;5.702;2024-01-15T04:36:38;16.33;;;3.35;;
43150;SDS011;28755;51.478;5.702;2024-01-15T04:39:05;7.97;;;2.65;;
43150;SDS011;28755;51.478;5.702;2024-01-15T04:41:30;5.35;;;1.92;;
43150;SDS011;28755;51.478;5.702;2024-01-15T04:43:56;8.52;;;3.00;;
43150;SDS011;28755;51.478;5.702;2024-01-15T04:46:22;12.98;;;2.83;;
43150;SDS011;28755;51.478;5.702;2024-01-15T04:48:47;13.32;;;2.72;;
43150;SDS011;28755;51.478;5.702;2024-01-15T04:51:13;10.48;;;2.75;;
43150;SDS011;28755;51.478;5.702;2024-01-15T04:53:38;7.65;;;2.30;;
43150;SDS011;28755;51.478;5.702;2024-01-15T04:56:04;12.00;;;1.90;;
43150;SDS011;28755;51.478;5.702;2024-01-15T04:58:30;10.93;;;2.42;;
43150;SDS011;28755;51.478;5.702;2024-01-15T05:00:55;7.15;;;1.98;;
43150;SDS011;28755;51.478;5.702;2024-01-15T05:03:21;9.85;;;1.55;;
43150;SDS011;28755;51.478;5.702;2024-01-15T05:05:47;7.53;;;1.58;;
43150;SDS011;28755;51.478;5.702;2024-01-15T05:08:12;9.60;;;1.77;;
43150;SDS011;28755;51.478;5.702;2024-01-15T05:10:38;9.40;;;1.65;;
43150;SDS011;28755;51.478;5.702;2024-01-15T05:13:03;3.63;;;1.27;;
43150;SDS011;28755;51.478;5.702;2024-01-15T05:15:29;10.00;;;1.48;;
43150;SDS011;28755;51.478;5.702;2024-01-15T05:17:54;6.45;;;1.17;;
43150;SDS011;28755;51.478;5.702;2024-01-15T05:20:20;5.25;;;1.30;;
43150;SDS011;28755;51.478;5.702;2024-01-15T05:22:46;5.88;;;1.33;;
43150;SDS011;28755;51.478;5.702;2024-01-15T05:25:11;6.95;;;1.17;;
43150;SDS011;28755;51.478;5.702;2024-01-15T05:27:37;1.75;;;0.88;;
43150;SDS011;28755;51.478;5.702;2024-01-15T05:30:03;2.53;;;0.77;;
43150;SDS011;28755;51.478;5.702;2024-01-15T05:32:29;3.88;;;0.98;;
43150;SDS011;28755;51.478;5.702;2024-01-15T05:34:54;5.10;;;1.10;;
43150;SDS011;28755;51.478;5.702;2024-01-15T05:37:20;4.88;;;1.20;;
43150;SDS011;28755;51.478;5.702;2024-01-15T05:39:45;9.18;;;1.45;;
43150;SDS011;28755;51.478;5.702;2024-01-15T05:42:11;5.25;;;0.98;;
43150;SDS011;28755;51.478;5.702;2024-01-15T05:44:36;6.20;;;1.25;;
43150;SDS011;28755;51.478;5.702;2024-01-15T05:47:02;7.50;;;1.55;;
43150;SDS011;28755;51.478;5.702;2024-01-15T05:49:29;7.00;;;1.35;;
43150;SDS011;28755;51.478;5.702;2024-01-15T05:51:54;3.45;;;1.58;;
43150;SDS011;28755;51.478;5.702;2024-01-15T05:54:20;7.93;;;1.40;;
43150;SDS011;28755;51.478;5.702;2024-01-15T05:56:46;6.30;;;1.52;;
43150;SDS011;28755;51.478;5.702;2024-01-15T05:59:11;6.63;;;1.75;;
43150;SDS011;28755;51.478;5.702;2024-01-15T06:01:37;6.68;;;1.60;;
43150;SDS011;28755;51.478;5.702;2024-01-15T06:04:03;5.57;;;2.10;;
43150;SDS011;28755;51.478;5.702;2024-01-15T06:06:28;9.85;;;2.13;;
43150;SDS011;28755;51.478;5.702;2024-01-15T06:08:54;6.18;;;2.03;;
43150;SDS011;28755;51.478;5.702;2024-01-15T06:11:20;8.52;;;2.45;;
43150;SDS011;28755;51.478;5.702;2024-01-15T06:13:45;5.15;;;1.92;;
43150;SDS011;28755;51.478;5.702;2024-01-15T06:16:17;6.20;;;1.50;;
43150;SDS011;28755;51.478;5.702;2024-01-15T06:18:45;5.80;;;1.88;;
43150;SDS011;28755;51.478;5.702;2024-01-15T06:21:10;6.30;;;2.58;;
43150;SDS011;28755;51.478;5.702;2024-01-15T06:23:37;10.02;;;3.22;;
43150;SDS011;28755;51.478;5.702;2024-01-15T06:26:03;9.32;;;2.95;;
43150;SDS011;28755;51.478;5.702;2024-01-15T06:28:29;9.68;;;4.05;;
43150;SDS011;28755;51.478;5.702;2024-01-15T06:30:55;14.18;;;4.57;;
43150;SDS011;28755;51.478;5.702;2024-01-15T06:33:21;16.25;;;4.88;;
43150;SDS011;28755;51.478;5.702;2024-01-15T06:35:47;8.27;;;4.15;;
43150;SDS011;28755;51.478;5.702;2024-01-15T06:38:13;12.48;;;4.65;;
43150;SDS011;28755;51.478;5.702;2024-01-15T06:40:38;17.02;;;5.28;;
43150;SDS011;28755;51.478;5.702;2024-01-15T06:43:06;12.85;;;5.00;;
43150;SDS011;28755;51.478;5.702;2024-01-15T06:45:32;11.30;;;4.82;;
43150;SDS011;28755;51.478;5.702;2024-01-15T06:47:58;13.50;;;4.90;;
43150;SDS011;28755;51.478;5.702;2024-01-15T06:50:23;11.95;;;5.10;;
43150;SDS011;28755;51.478;5.702;2024-01-15T06:52:49;17.10;;;5.03;;
43150;SDS011;28755;51.478;5.702;2024-01-15T06:55:14;12.32;;;4.72;;
43150;SDS011;28755;51.478;5.702;2024-01-15T06:57:40;8.15;;;3.80;;
43150;SDS011;28755;51.478;5.702;2024-01-15T07:00:06;10.95;;;3.42;;
43150;SDS011;28755;51.478;5.702;2024-01-15T07:02:33;6.10;;;2.78;;
43150;SDS011;28755;51.478;5.702;2024-01-15T07:04:58;8.85;;;2.90;;
43150;SDS011;28755;51.478;5.702;2024-01-15T07:07:24;5.53;;;2.55;;
43150;SDS011;28755;51.478;5.702;2024-01-15T07:09:53;8.82;;;3.10;;
43150;SDS011;28755;51.478;5.702;2024-01-15T07:12:19;5.85;;;3.30;;
43150;SDS011;28755;51.478;5.702;2024-01-15T07:14:45;10.45;;;4.00;;
43150;SDS011;28755;51.478;5.702;2024-01-15T07:17:10;6.70;;;3.72;;
43150;SDS011;28755;51.478;5.702;2024-01-15T07:19:36;13.40;;;4.93;;
43150;SDS011;28755;51.478;5.702;2024-01-15T07:22:02;9.73;;;4.72;;
43150;SDS011;28755;51.478;5.702;2024-01-15T07:24:27;8.20;;;4.40;;
43150;SDS011;28755;51.478;5.702;2024-01-15T07:26:53;8.68;;;4.93;;
43150;SDS011;28755;51.478;5.702;2024-01-15T07:29:18;5.70;;;4.05;;
43150;SDS011;28755;51.478;5.702;2024-01-15T07:31:48;7.00;;;4.18;;
43150;SDS011;28755;51.478;5.702;2024-01-15T07:34:14;8.60;;;4.05;;
43150;SDS011;28755;51.478;5.702;2024-01-15T07:36:41;8.63;;;4.38;;
43150;SDS011;28755;51.478;5.702;2024-01-15T07:39:08;7.95;;;4.45;;
43150;SDS011;28755;51.478;5.702;2024-01-15T07:41:34;7.47;;;4.50;;
43150;SDS011;28755;51.478;5.702;2024-01-15T07:44:00;7.28;;;5.00;;
43150;SDS011;28755;51.478;5.702;2024-01-15T07:46:25;5.55;;;4.45;;
43150;SDS011;28755;51.478;5.702;2024-01-15T07:48:51;5.82;;;4.47;;
43150;SDS011;28755;51.478;5.702;2024-01-15T07:53:47;8.43;;;4.13;;
43150;SDS011;28755;51.478;5.702;2024-01-15T07:56:12;9.38;;;5.05;;
43150;SDS011;28755;51.478;5.702;2024-01-15T07:58:38;11.50;;;4.82;;
43150;SDS011;28755;51.478;5.702;2024-01-15T08:01:03;6.38;;;4.78;;
43150;SDS011;28755;51.478;5.702;2024-01-15T08:03:29;6.85;;;4.25;;
43150;SDS011;28755;51.478;5.702;2024-01-15T08:05:55;5.95;;;4.32;;
43150;SDS011;28755;51.478;5.702;2024-01-15T08:08:22;8.25;;;4.50;;
43150;SDS011;28755;51.478;5.702;2024-01-15T08:10:48;7.00;;;4.68;;
43150;SDS011;28755;51.478;5.702;2024-01-15T08:13:14;8.35;;;5.10;;
43150;SDS011;28755;51.478;5.702;2024-01-15T08:15:40;9.52;;;6.18;;
43150;SDS011;28755;51.478;5.702;2024-01-15T08:18:06;11.85;;;6.25;;
43150;SDS011;28755;51.478;5.702;2024-01-15T08:20:32;10.30;;;7.13;;
43150;SDS011;28755;51.478;5.702;2024-01-15T08:22:57;11.50;;;7.60;;
43150;SDS011;28755;51.478;5.702;2024-01-15T08:25:23;13.27;;;8.45;;
43150;SDS011;28755;51.478;5.702;2024-01-15T08:27:49;14.63;;;8.25;;
43150;SDS011;28755;51.478;5.702;2024-01-15T08:30:15;12.98;;;8.70;;
43150;SDS011;28755;51.478;5.702;2024-01-15T08:32:40;14.10;;;8.15;;
43150;SDS011;28755;51.478;5.702;2024-01-15T08:35:08;13.40;;;8.68;;
43150;SDS011;28755;51.478;5.702;2024-01-15T08:37:34;11.10;;;8.30;;
43150;SDS011;28755;51.478;5.702;2024-01-15T08:40:00;12.15;;;8.50;;
43150;SDS011;28755;51.478;5.702;2024-01-15T08:42:25;12.93;;;9.07;;
43150;SDS011;28755;51.478;5.702;2024-01-15T08:44:51;13.15;;;8.48;;
43150;SDS011;28755;51.478;5.702;2024-01-15T08:47:16;14.15;;;8.52;;
43150;SDS011;28755;51.478;5.702;2024-01-15T08:49:42;13.82;;;8.63;;
43150;SDS011;28755;51.478;5.702;2024-01-15T08:52:10;13.13;;;7.20;;
43150;SDS011;28755;51.478;5.702;2024-01-15T08:54:35;11.15;;;7.63;;
43150;SDS011;28755;51.478;5.702;2024-01-15T08:57:01;11.68;;;8.15;;
43150;SDS011;28755;51.478;5.702;2024-01-15T08:59:27;11.93;;;8.73;;
43150;SDS011;28755;51.478;5.702;2024-01-15T09:01:53;13.18;;;8.95;;
43150;SDS011;28755;51.478;5.702;2024-01-15T09:04:19;12.55;;;9.27;;
43150;SDS011;28755;51.478;5.702;2024-01-15T09:06:45;12.00;;;9.10;;
43150;SDS011;28755;51.478;5.702;2024-01-15T09:09:14;12.17;;;8.97;;
43150;SDS011;28755;51.478;5.702;2024-01-15T09:11:42;12.98;;;8.20;;
43150;SDS011;28755;51.478;5.702;2024-01-15T09:14:08;12.32;;;8.68;;
43150;SDS011;28755;51.478;5.702;2024-01-15T09:16:34;11.23;;;8.18;;
43150;SDS011;28755;51.478;5.702;2024-01-15T09:19:00;12.48;;;7.20;;
43150;SDS011;28755;51.478;5.702;2024-01-15T09:21:25;10.57;;;7.43;;
43150;SDS011;28755;51.478;5.702;2024-01-15T09:23:51;11.00;;;6.38;;
43150;SDS011;28755;51.478;5.702;2024-01-15T09:26:17;8.82;;;5.95;;
43150;SDS011;28755;51.478;5.702;2024-01-15T09:28:43;8.25;;;5.68;;
43150;SDS011;28755;51.478;5.702;2024-01-15T09:31:08;8.10;;;5.40;;
43150;SDS011;28755;51.478;5.702;2024-01-15T09:33:34;7.68;;;4.80;;
43150;SDS011;28755;51.478;5.702;2024-01-15T09:36:03;5.57;;;3.88;;
43150;SDS011;28755;51.478;5.702;2024-01-15T09:38:29;9.75;;;3.80;;
43150;SDS011;28755;51.478;5.702;2024-01-15T09:40:56;9.57;;;3.88;;
43150;SDS011;28755;51.478;5.702;2024-01-15T09:43:22;11.13;;;3.15;;
43150;SDS011;28755;51.478;5.702;2024-01-15T09:45:48;4.95;;;1.90;;
43150;SDS011;28755;51.478;5.702;2024-01-15T09:48:15;5.50;;;1.77;;
43150;SDS011;28755;51.478;5.702;2024-01-15T09:50:42;7.22;;;1.70;;
43150;SDS011;28755;51.478;5.702;2024-01-15T09:53:08;9.85;;;1.92;;
43150;SDS011;28755;51.478;5.702;2024-01-15T09:55:36;8.65;;;1.30;;
43150;SDS011;28755;51.478;5.702;2024-01-15T09:58:03;8.20;;;1.20;;
43150;SDS011;28755;51.478;5.702;2024-01-15T10:00:29;2.95;;;1.20;;
43150;SDS011;28755;51.478;5.702;2024-01-15T10:02:58;2.10;;;1.10;;
43150;SDS011;28755;51.478;5.702;2024-01-15T10:05:26;6.20;;;1.05;;
43150;SDS011;28755;51.478;5.702;2024-01-15T10:07:53;3.03;;;0.85;;
43150;SDS011;28755;51.478;5.702;2024-01-15T10:10:21;5.35;;;1.13;;
43150;SDS011;28755;51.478;5.702;2024-01-15T10:12:47;6.97;;;1.45;;
43150;SDS011;28755;51.478;5.702;2024-01-15T10:15:14;4.07;;;1.00;;
43150;SDS011;28755;51.478;5.702;2024-01-15T10:17:39;8.00;;;1.17;;
43150;SDS011;28755;51.478;5.702;2024-01-15T10:20:14;6.95;;;1.20;;
43150;SDS011;28755;51.478;5.702;2024-01-15T10:22:43;7.63;;;1.70;;
43150;SDS011;28755;51.478;5.702;2024-01-15T10:25:13;7.60;;;1.33;;
43150;SDS011;28755;51.478;5.702;2024-01-15T10:27:42;5.60;;;1.20;;
43150;SDS011;28755;51.478;5.702;2024-01-15T10:30:09;3.78;;;1.30;;
43150;SDS011;28755;51.478;5.702;2024-01-15T10:32:35;7.28;;;1.25;;
43150;SDS011;28755;51.478;5.702;2024-01-15T10:35:01;4.85;;;1.08;;
43150;SDS011;28755;51.478;5.702;2024-01-15T10:37:27;9.35;;;1.25;;
43150;SDS011;28755;51.478;5.702;2024-01-15T10:39:52;5.95;;;1.13;;
43150;SDS011;28755;51.478;5.702;2024-01-15T10:42:18;4.40;;;0.93;;
43150;SDS011;28755;51.478;5.702;2024-01-15T10:44:44;3.13;;;1.20;;
43150;SDS011;28755;51.478;5.702;2024-01-15T10:47:12;5.15;;;1.27;;
43150;SDS011;28755;51.478;5.702;2024-01-15T10:49:38;6.05;;;1.20;;
43150;SDS011;28755;51.478;5.702;2024-01-15T10:52:04;5.82;;;1.25;;
43150;SDS011;28755;51.478;5.702;2024-01-15T10:54:30;3.72;;;1.35;;
43150;SDS011;28755;51.478;5.702;2024-01-15T10:56:57;8.25;;;1.88;;
43150;SDS011;28755;51.478;5.702;2024-01-15T10:59:23;2.75;;;1.40;;
43150;SDS011;28755;51.478;5.702;2024-01-15T11:01:49;8.07;;;2.05;;
43150;SDS011;28755;51.478;5.702;2024-01-15T11:04:18;6.90;;;2.03;;
43150;SDS011;28755;51.478;5.702;2024-01-15T11:06:45;5.93;;;1.80;;
43150;SDS011;28755;51.478;5.702;2024-01-15T11:09:13;4.15;;;1.65;;
43150;SDS011;28755;51.478;5.702;2024-01-15T11:11:40;4.38;;;2.03;;
43150;SDS011;28755;51.478;5.702;2024-01-15T11:14:07;4.43;;;2.13;;
43150;SDS011;28755;51.478;5.702;2024-01-15T11:19:21;4.55;;;1.92;;
43150;SDS011;28755;51.478;5.702;2024-01-15T11:21:47;4.85;;;1.90;;
43150;SDS011;28755;51.478;5.702;2024-01-15T11:24:33;5.75;;;1.88;;
43150;SDS011;28755;51.478;5.702;2024-01-15T11:27:05;5.03;;;2.10;;
43150;SDS011;28755;51.478;5.702;2024-01-15T11:29:36;5.40;;;2.08;;
43150;SDS011;28755;51.478;5.702;2024-01-15T11:32:05;4.07;;;1.75;;
43150;SDS011;28755;51.478;5.702;2024-01-15T11:37:19;4.22;;;1.58;;
43150;SDS011;28755;51.478;5.702;2024-01-15T11:39:46;4.30;;;1.60;;
43150;SDS011;28755;51.478;5.702;2024-01-15T11:42:12;4.43;;;1.30;;
43150;SDS011;28755;51.478;5.702;2024-01-15T11:44:38;5.70;;;1.45;;
43150;SDS011;28755;51.478;5.702;2024-01-15T11:47:10;5.22;;;1.20;;
43150;SDS011;28755;51.478;5.702;2024-01-15T11:49:57;2.22;;;1.13;;
43150;SDS011;28755;51.478;5.702;2024-01-15T11:52:33;6.60;;;1.30;;
43150;SDS011;28755;51.478;5.702;2024-01-15T12:00:10;2.80;;;1.13;;
43150;SDS011;28755;51.478;5.702;2024-01-15T12:02:41;5.43;;;1.40;;
43150;SDS011;28755;51.478;5.702;2024-01-15T12:05:11;2.47;;;0.90;;
43150;SDS011;28755;51.478;5.702;2024-01-15T12:07:41;3.50;;;1.15;;
43150;SDS011;28755;51.478;5.702;2024-01-15T12:12:39;3.88;;;1.10;;
43150;SDS011;28755;51.478;5.702;2024-01-15T12:15:09;2.38;;;1.20;;
43150;SDS011;28755;51.478;5.702;2024-01-15T12:17:35;1.58;;;0.90;;
43150;SDS011;28755;51.478;5.702;2024-01-15T12:20:02;1.60;;;0.98;;
43150;SDS011;28755;51.478;5.702;2024-01-15T12:22:31;2.50;;;1.02;;
43150;SDS011;28755;51.478;5.702;2024-01-15T12:24:56;1.00;;;0.90;;
43150;SDS011;28755;51.478;5.702;2024-01-15T12:27:22;2.92;;;0.90;;
43150;SDS011;28755;51.478;5.702;2024-01-15T12:29:49;2.00;;;1.30;;
43150;SDS011;28755;51.478;5.702;2024-01-15T12:32:14;3.00;;;0.80;;
43150;SDS011;28755;51.478;5.702;2024-01-15T12:34:40;1.40;;;1.15;;
43150;SDS011;28755;51.478;5.702;2024-01-15T12:37:07;3.65;;;1.10;;
43150;SDS011;28755;51.478;5.702;2024-01-15T12:39:35;2.30;;;1.30;;
43150;SDS011;28755;51.478;5.702;2024-01-15T12:42:01;2.10;;;1.40;;
43150;SDS011;28755;51.478;5.702;2024-01-15T12:44:28;2.60;;;1.58;;
43150;SDS011;28755;51.478;5.702;2024-01-15T12:46:54;2.75;;;1.65;;
43150;SDS011;28755;51.478;5.702;2024-01-15T12:49:21;3.78;;;1.70;;
43150;SDS011;28755;51.478;5.702;2024-01-15T12:51:56;2.75;;;1.98;;
43150;SDS011;28755;51.478;5.702;2024-01-15T12:54:22;4.70;;;1.60;;
43150;SDS011;28755;51.478;5.702;2024-01-15T12:56:49;4.25;;;2.28;;
43150;SDS011;28755;51.478;5.702;2024-01-15T12:59:15;2.90;;;2.20;;
43150;SDS011;28755;51.478;5.702;2024-01-15T13:01:40;4.20;;;2.25;;
43150;SDS011;28755;51.478;5.702;2024-01-15T13:04:06;3.40;;;2.40;;
43150;SDS011;28755;51.478;5.702;2024-01-15T13:06:33;3.47;;;2.50;;
43150;SDS011;28755;51.478;5.702;2024-01-15T13:08:59;5.40;;;2.65;;
43150;SDS011;28755;51.478;5.702;2024-01-15T13:11:26;4.85;;;2.88;;
43150;SDS011;28755;51.478;5.702;2024-01-15T13:13:52;7.00;;;2.92;;
43150;SDS011;28755;51.478;5.702;2024-01-15T13:16:18;5.82;;;3.03;;
43150;SDS011;28755;51.478;5.702;2024-01-15T13:18:45;2.88;;;2.50;;
43150;SDS011;28755;51.478;5.702;2024-01-15T13:21:11;3.65;;;2.67;;
43150;SDS011;28755;51.478;5.702;2024-01-15T13:23:37;2.67;;;2.47;;
43150;SDS011;28755;51.478;5.702;2024-01-15T13:26:03;4.35;;;3.13;;
43150;SDS011;28755;51.478;5.702;2024-01-15T13:28:30;3.22;;;2.50;;
43150;SDS011;28755;51.478;5.702;2024-01-15T13:30:55;4.32;;;2.90;;
43150;SDS011;28755;51.478;5.702;2024-01-15T13:33:21;4.97;;;3.50;;
43150;SDS011;28755;51.478;5.702;2024-01-15T13:35:47;4.90;;;3.00;;
43150;SDS011;28755;51.478;5.702;2024-01-15T13:38:15;4.45;;;2.97;;
43150;SDS011;28755;51.478;5.702;2024-01-15T13:40:41;5.93;;;2.80;;
43150;SDS011;28755;51.478;5.702;2024-01-15T13:43:06;4.05;;;2.95;;
43150;SDS011;28755;51.478;5.702;2024-01-15T13:45:33;5.95;;;2.97;;
43150;SDS011;28755;51.478;5.702;2024-01-15T13:48:00;4.35;;;2.67;;
43150;SDS011;28755;51.478;5.702;2024-01-15T13:50:26;5.03;;;2.70;;
43150;SDS011;28755;51.478;5.702;2024-01-15T13:52:52;3.95;;;2.83;;
43150;SDS011;28755;51.478;5.702;2024-01-15T13:55:18;3.53;;;2.95;;
43150;SDS011;28755;51.478;5.702;2024-01-15T13:57:43;4.25;;;3.00;;
43150;SDS011;28755;51.478;5.702;2024-01-15T14:00:09;3.42;;;2.67;;
43150;SDS011;28755;51.478;5.702;2024-01-15T14:02:37;5.35;;;2.50;;
43150;SDS011;28755;51.478;5.702;2024-01-15T14:05:02;3.97;;;2.17;;
43150;SDS011;28755;51.478;5.702;2024-01-15T14:07:28;2.42;;;2.20;;
43150;SDS011;28755;51.478;5.702;2024-01-15T14:09:54;3.42;;;2.42;;
43150;SDS011;28755;51.478;5.702;2024-01-15T14:12:19;3.50;;;2.00;;
43150;SDS011;28755;51.478;5.702;2024-01-15T14:14:45;4.25;;;2.10;;
43150;SDS011;28755;51.478;5.702;2024-01-15T14:17:10;4.50;;;2.35;;
43150;SDS011;28755;51.478;5.702;2024-01-15T14:19:36;4.90;;;2.20;;
43150;SDS011;28755;51.478;5.702;2024-01-15T14:22:02;3.63;;;2.22;;
43150;SDS011;28755;51.478;5.702;2024-01-15T14:24:28;6.70;;;3.03;;
43150;SDS011;28755;51.478;5.702;2024-01-15T14:26:54;5.68;;;3.00;;
43150;SDS011;28755;51.478;5.702;2024-01-15T14:29:19;5.22;;;2.70;;
43150;SDS011;28755;51.478;5.702;2024-01-15T14:31:47;6.22;;;2.60;;
43150;SDS011;28755;51.478;5.702;2024-01-15T14:34:13;4.40;;;2.40;;
43150;SDS011;28755;51.478;5.702;2024-01-15T14:36:38;3.35;;;2.10;;
43150;SDS011;28755;51.478;5.702;2024-01-15T14:39:04;4.20;;;2.30;;
43150;SDS011;28755;51.478;5.702;2024-01-15T14:41:29;6.22;;;2.40;;
43150;SDS011;28755;51.478;5.702;2024-01-15T14:43:55;3.08;;;2.22;;
43150;SDS011;28755;51.478;5.702;2024-01-15T14:46:22;5.43;;;2.50;;
43150;SDS011;28755;51.478;5.702;2024-01-15T14:48:47;3.65;;;2.13;;
43150;SDS011;28755;51.478;5.702;2024-01-15T14:51:13;4.40;;;2.03;;